Time;durP1;ratioP1;P1;durP2;ratioP2;P2;SDS_P1;SDS_P2;PMS_P1;PMS_P2;Temp;Humidity;BMP_temperature;BMP_pressure;BME280_temperature;BME280_humidity;BME280_pressure;Samples;Min_cycle;Max_cycle;Signal;HPM_P1;HPM_P2
2021/11/20 00:00:12;;;;;;;29.33;13.50;;;5.60;84.10;;;;;;5034899;28;20025;-67
2021/11/20 00:02:37;;;;;;;20.88;11.50;;;5.60;84.20;;;;;;5038700;28;20052;-66
2021/11/20 00:05:05;;;;;;;38.03;12.82;;;5.60;84.20;;;;;;5045130;28;20032;-67
2021/11/20 00:07:31;;;;;;;42.72;12.68;;;5.60;84.40;;;;;;5039925;28;20036;-66
2021/11/20 00:09:57;;;;;;;21.20;11.88;;;5.60;84.20;;;;;;5046467;28;20040;-65
2021/11/20 00:12:27;;;;;;;61.38;13.68;;;5.60;84.30;;;;;;5038411;28;20467;-66
2021/11/20 00:14:53;;;;;;;30.83;12.00;;;5.60;84.40;;;;;;5039622;28;20029;-67
2021/11/20 00:17:20;;;;;;;36.00;12.60;;;5.60;84.20;;;;;;5043958;28;20060;-67
2021/11/20 00:19:45;;;;;;;52.20;12.75;;;5.60;84.20;;;;;;5046661;28;20040;-67
2021/11/20 00:22:37;;;;;;;47.78;12.35;;;5.60;85.00;;;;;;5044479;28;20516;-67
2021/11/20 00:25:19;;;;;;;58.70;12.57;;;5.60;84.00;;;;;;5042109;28;20029;-67
2021/11/20 00:27:45;;;;;;;43.15;12.48;;;5.60;84.00;;;;;;5043390;28;20367;-67
2021/11/20 00:30:15;;;;;;;42.45;13.65;;;5.60;84.00;;;;;;5043159;28;20044;-67
2021/11/20 00:32:48;;;;;;;44.75;12.30;;;5.50;83.90;;;;;;5042833;28;20037;-67
2021/11/20 00:35:17;;;;;;;29.77;12.70;;;5.50;84.10;;;;;;5041932;28;20068;-67
2021/11/20 00:37:44;;;;;;;29.13;12.50;;;5.50;84.20;;;;;;5040900;28;20042;-67
2021/11/20 00:40:32;;;;;;;41.85;12.05;;;5.50;84.40;;;;;;5041754;28;20114;-66
2021/11/20 00:42:58;;;;;;;34.75;13.93;;;5.50;84.70;;;;;;5040950;28;20033;-66
2021/11/20 00:45:24;;;;;;;40.25;13.05;;;5.50;84.50;;;;;;5043142;28;20029;-65
2021/11/20 00:47:50;;;;;;;50.63;13.35;;;5.50;84.50;;;;;;5043968;28;20045;-66
2021/11/20 00:50:18;;;;;;;31.08;11.85;;;5.50;84.50;;;;;;5042640;28;20562;-66
2021/11/20 00:52:45;;;;;;;64.72;13.32;;;5.50;84.60;;;;;;5043151;28;20052;-67
2021/11/20 00:55:13;;;;;;;39.50;12.70;;;5.50;84.60;;;;;;5040709;28;20123;-67
2021/11/20 00:57:41;;;;;;;26.02;12.60;;;5.50;84.50;;;;;;5040599;28;20045;-66
2021/11/20 01:00:10;;;;;;;23.13;12.02;;;5.50;84.60;;;;;;5042058;28;20040;-66
2021/11/20 01:02:36;;;;;;;15.60;9.35;;;5.50;84.60;;;;;;5041734;28;20033;-67
2021/11/20 01:05:04;;;;;;;16.08;9.00;;;5.50;84.70;;;;;;5044450;28;20033;-67
2021/11/20 01:07:30;;;;;;;16.13;9.50;;;5.50;84.90;;;;;;5036991;28;20040;-67
2021/11/20 01:09:56;;;;;;;18.13;8.75;;;5.50;84.80;;;;;;5040239;28;20086;-66
2021/11/20 01:12:27;;;;;;;21.73;9.80;;;5.60;85.10;;;;;;5050157;28;20041;-67
2021/11/20 01:14:53;;;;;;;20.88;9.25;;;5.60;85.00;;;;;;5043385;28;20111;-66
2021/11/20 01:17:22;;;;;;;22.58;9.55;;;5.60;85.80;;;;;;5042910;28;20033;-66
2021/11/20 01:19:49;;;;;;;25.42;10.10;;;5.60;84.90;;;;;;5041581;28;20072;-67
2021/11/20 01:22:17;;;;;;;29.17;10.38;;;5.70;84.70;;;;;;5044447;28;20033;-67
2021/11/20 01:24:44;;;;;;;29.48;11.13;;;5.60;84.60;;;;;;5039897;28;20036;-66
2021/11/20 01:27:11;;;;;;;27.30;10.77;;;5.70;84.50;;;;;;5041821;28;20504;-66
2021/11/20 01:29:37;;;;;;;26.88;10.98;;;5.70;84.60;;;;;;5044084;28;20041;-67
2021/11/20 01:32:03;;;;;;;27.63;12.13;;;5.70;84.70;;;;;;5042699;28;20546;-67
2021/11/20 01:34:29;;;;;;;31.48;11.70;;;5.70;84.70;;;;;;5040880;28;20040;-67
2021/11/20 01:36:57;;;;;;;35.22;12.15;;;5.70;84.70;;;;;;5041409;28;20022;-67
2021/11/20 01:39:28;;;;;;;40.17;11.23;;;5.70;84.70;;;;;;5043939;28;20135;-67
2021/11/20 01:41:58;;;;;;;24.58;11.27;;;5.70;84.70;;;;;;5042991;28;20416;-67
2021/11/20 01:44:27;;;;;;;30.10;10.77;;;5.70;84.60;;;;;;5044198;28;20546;-66
2021/11/20 01:46:57;;;;;;;44.40;11.05;;;5.70;84.60;;;;;;5045593;28;20454;-67
2021/11/20 01:49:27;;;;;;;40.42;12.60;;;5.70;84.60;;;;;;5048168;28;20048;-67
2021/11/20 01:51:57;;;;;;;24.70;10.95;;;5.80;84.60;;;;;;5047798;28;20110;-66
2021/11/20 01:54:36;;;;;;;25.83;10.45;;;5.70;84.60;;;;;;5044909;28;20584;-67
2021/11/20 01:57:28;;;;;;;25.63;10.88;;;5.80;84.70;;;;;;5045236;28;20412;-67
2021/11/20 02:00:16;;;;;;;33.55;10.98;;;5.80;84.90;;;;;;5047070;28;20512;-67
2021/11/20 02:02:47;;;;;;;29.42;11.27;;;5.80;84.90;;;;;;5040780;28;20040;-66
2021/11/20 02:05:50;;;;;;;27.77;10.93;;;5.80;84.70;;;;;;5045775;28;20037;-67
2021/11/20 02:08:21;;;;;;;34.60;11.43;;;5.80;84.90;;;;;;5039373;28;20036;-67
2021/11/20 02:10:54;;;;;;;44.70;11.43;;;5.80;84.60;;;;;;5038836;28;20408;-67
2021/11/20 02:13:28;;;;;;;31.27;11.23;;;5.80;84.60;;;;;;5043395;28;20037;-67
2021/11/20 02:16:14;;;;;;;25.80;10.07;;;5.80;84.60;;;;;;5044953;28;20041;-67
2021/11/20 02:18:44;;;;;;;34.88;11.48;;;5.70;84.70;;;;;;5042898;28;20824;-67
2021/11/20 02:21:25;;;;;;;32.47;11.77;;;5.70;84.50;;;;;;5046334;28;20052;-67
2021/11/20 02:23:52;;;;;;;26.65;11.68;;;5.70;84.60;;;;;;5044229;28;20041;-67
2021/11/20 02:26:18;;;;;;;37.05;11.50;;;5.70;84.60;;;;;;5043064;28;20535;-66
2021/11/20 02:28:45;;;;;;;42.22;12.07;;;5.70;84.70;;;;;;5045027;28;20413;-66
2021/11/20 02:31:11;;;;;;;32.67;12.18;;;5.70;84.70;;;;;;5046125;28;20267;-67
2021/11/20 02:33:40;;;;;;;24.80;10.75;;;5.60;84.70;;;;;;5045601;28;20036;-66
2021/11/20 02:36:14;;;;;;;27.02;11.55;;;5.70;84.90;;;;;;5046488;28;20045;-67
2021/11/20 02:38:47;;;;;;;28.75;11.45;;;5.70;85.00;;;;;;5044002;28;20055;-67
2021/11/20 02:41:17;;;;;;;26.58;9.98;;;5.70;85.20;;;;;;5045187;28;20029;-67
2021/11/20 02:43:45;;;;;;;26.75;11.05;;;5.60;85.10;;;;;;5043877;28;20512;-67
2021/11/20 02:46:13;;;;;;;20.30;9.43;;;5.60;85.10;;;;;;5045585;28;20060;-66
2021/11/20 02:48:39;;;;;;;23.52;9.15;;;5.70;85.20;;;;;;5044408;28;20047;-67
2021/11/20 02:51:16;;;;;;;20.02;9.75;;;5.70;85.20;;;;;;5043579;28;20033;-66
2021/11/20 02:53:45;;;;;;;28.35;9.95;;;5.70;85.30;;;;;;5046743;28;20043;-67
2021/11/20 02:56:15;;;;;;;17.77;8.98;;;5.70;86.10;;;;;;5041009;28;20041;-67
2021/11/20 02:58:41;;;;;;;22.27;9.45;;;5.70;85.30;;;;;;5042190;28;20508;-66
2021/11/20 03:01:26;;;;;;;19.42;8.80;;;5.70;85.30;;;;;;5043159;28;20044;-66
2021/11/20 03:03:52;;;;;;;19.50;8.37;;;5.70;85.60;;;;;;5039931;28;20114;-67
2021/11/20 03:06:18;;;;;;;24.70;9.00;;;5.70;85.40;;;;;;5046180;28;20291;-67
2021/11/20 03:08:43;;;;;;;19.60;8.45;;;5.70;85.30;;;;;;5041706;28;20072;-66
2021/11/20 03:11:13;;;;;;;22.45;8.65;;;5.70;85.30;;;;;;5039061;28;20037;-66
2021/11/20 03:13:40;;;;;;;16.15;8.60;;;5.70;85.30;;;;;;5042174;28;20590;-66
2021/11/20 03:16:06;;;;;;;19.98;8.77;;;5.70;85.30;;;;;;5044863;28;20049;-66
2021/11/20 03:18:31;;;;;;;18.75;9.57;;;5.70;85.40;;;;;;5042740;28;20102;-66
2021/11/20 03:20:57;;;;;;;15.88;8.88;;;5.60;85.40;;;;;;5042731;28;20520;-66
2021/11/20 03:23:26;;;;;;;17.55;8.93;;;5.60;85.50;;;;;;5046267;28;20585;-66
2021/11/20 03:25:51;;;;;;;21.38;8.73;;;5.70;85.60;;;;;;5043716;28;20503;-66
2021/11/20 03:28:17;;;;;;;16.38;8.57;;;5.60;85.40;;;;;;5046138;28;20124;-66
2021/11/20 03:30:43;;;;;;;16.08;8.70;;;5.60;85.50;;;;;;5045105;28;20044;-67
2021/11/20 03:33:10;;;;;;;18.95;8.73;;;5.60;85.60;;;;;;5040524;28;20108;-67
2021/11/20 03:35:35;;;;;;;17.30;8.38;;;5.70;85.70;;;;;;5042947;28;20037;-67
2021/11/20 03:38:02;;;;;;;15.55;8.55;;;5.70;85.80;;;;;;5045653;28;20040;-66
2021/11/20 03:40:28;;;;;;;17.88;8.55;;;5.70;85.80;;;;;;5042011;28;20123;-67
2021/11/20 03:42:54;;;;;;;17.15;8.32;;;5.70;85.70;;;;;;5044127;28;20060;-67
2021/11/20 03:45:22;;;;;;;15.75;8.45;;;5.70;85.60;;;;;;5046236;28;20508;-67
2021/11/20 03:47:47;;;;;;;16.45;8.73;;;5.70;85.60;;;;;;5046112;28;20455;-67
2021/11/20 03:50:14;;;;;;;19.48;9.00;;;5.80;85.60;;;;;;5042633;28;20060;-66
2021/11/20 03:52:42;;;;;;;16.73;8.65;;;5.70;85.60;;;;;;5042043;28;20040;-66
2021/11/20 03:55:10;;;;;;;18.60;8.82;;;5.80;85.60;;;;;;5040217;28;20052;-67
2021/11/20 03:57:36;;;;;;;23.02;9.10;;;5.80;85.50;;;;;;5041582;28;20468;-66
2021/11/20 04:00:11;;;;;;;15.10;8.30;;;5.80;85.70;;;;;;5040792;28;20041;-64
2021/11/20 04:02:37;;;;;;;17.83;8.98;;;5.80;85.60;;;;;;5042371;28;20047;-65
2021/11/20 04:05:04;;;;;;;16.23;8.60;;;5.80;85.40;;;;;;5039907;28;20587;-66
2021/11/20 04:07:30;;;;;;;16.83;8.43;;;5.80;85.40;;;;;;5042004;28;20141;-67
2021/11/20 04:09:55;;;;;;;16.20;8.57;;;5.80;85.30;;;;;;5044705;28;20064;-66
2021/11/20 04:12:21;;;;;;;16.05;8.68;;;5.80;85.40;;;;;;5037136;28;20037;-67
2021/11/20 04:14:47;;;;;;;17.67;8.85;;;5.80;85.40;;;;;;5041681;28;20040;-66
2021/11/20 04:17:13;;;;;;;17.70;9.02;;;5.80;85.40;;;;;;5040816;28;20103;-66
2021/11/20 04:19:39;;;;;;;14.50;8.02;;;5.90;85.60;;;;;;5042253;28;20049;-66
2021/11/20 04:22:05;;;;;;;16.48;9.18;;;5.90;85.60;;;;;;5042458;28;20049;-66
2021/11/20 04:24:32;;;;;;;15.90;8.68;;;5.90;85.60;;;;;;5040124;28;20036;-67
2021/11/20 04:26:58;;;;;;;15.65;8.68;;;5.90;85.60;;;;;;5042247;28;20033;-66
2021/11/20 04:29:23;;;;;;;17.63;8.95;;;6.00;85.60;;;;;;5043298;28;20025;-66
2021/11/20 04:31:49;;;;;;;16.88;8.55;;;6.00;85.50;;;;;;5044498;28;20035;-66
2021/11/20 04:34:15;;;;;;;16.15;8.98;;;6.00;85.40;;;;;;5040821;28;20122;-66
2021/11/20 04:36:42;;;;;;;15.98;8.30;;;6.00;85.40;;;;;;5042848;28;20033;-67
2021/11/20 04:39:08;;;;;;;16.65;8.77;;;6.00;85.40;;;;;;5040877;28;20022;-67
2021/11/20 04:41:34;;;;;;;15.15;8.40;;;6.00;85.40;;;;;;5041442;28;20044;-66
2021/11/20 04:44:00;;;;;;;18.08;7.95;;;6.10;85.40;;;;;;5041763;28;20170;-66
2021/11/20 04:46:26;;;;;;;15.68;8.65;;;6.00;85.30;;;;;;5044857;28;20029;-66
2021/11/20 04:48:52;;;;;;;16.52;8.50;;;6.10;85.30;;;;;;5042044;28;20045;-66
2021/11/20 04:51:20;;;;;;;21.90;10.07;;;6.10;85.20;;;;;;5038604;28;20124;-66
2021/11/20 04:53:46;;;;;;;18.92;10.30;;;6.10;85.10;;;;;;5039084;28;20565;-66
2021/11/20 04:56:15;;;;;;;18.40;9.35;;;6.10;85.00;;;;;;5040938;28;20106;-66
2021/11/20 04:58:42;;;;;;;17.52;9.40;;;6.10;84.90;;;;;;5039573;28;20065;-67
2021/11/20 05:01:09;;;;;;;19.27;9.88;;;6.10;84.90;;;;;;5041167;28;20671;-65
2021/11/20 05:03:35;;;;;;;16.33;8.75;;;6.20;84.90;;;;;;5037002;28;20033;-66
2021/11/20 05:06:01;;;;;;;17.98;10.13;;;6.10;84.80;;;;;;5043715;28;20166;-66
2021/11/20 05:08:28;;;;;;;17.92;8.88;;;6.10;84.70;;;;;;5040257;28;20502;-66
2021/11/20 05:10:54;;;;;;;16.65;9.43;;;6.10;84.70;;;;;;5038608;28;20042;-66
2021/11/20 05:13:23;;;;;;;16.65;8.98;;;6.00;84.70;;;;;;5041087;28;20053;-67
2021/11/20 05:15:50;;;;;;;18.05;10.18;;;6.00;84.70;;;;;;5045352;28;20390;-67
2021/11/20 05:18:16;;;;;;;20.00;10.20;;;6.00;84.80;;;;;;5043267;28;20029;-67
2021/11/20 05:20:43;;;;;;;16.80;9.60;;;6.00;84.80;;;;;;5045110;28;20424;-67
2021/11/20 05:23:09;;;;;;;15.82;8.95;;;6.00;84.70;;;;;;5044505;28;20032;-67
2021/11/20 05:25:35;;;;;;;17.42;9.10;;;5.90;84.70;;;;;;5047919;28;20064;-66
2021/11/20 05:28:01;;;;;;;18.83;9.35;;;5.90;84.90;;;;;;5044838;28;20072;-67
2021/11/20 05:30:32;;;;;;;17.65;9.52;;;5.80;85.10;;;;;;5042376;28;20404;-66
2021/11/20 05:33:00;;;;;;;17.83;9.40;;;5.80;85.30;;;;;;5044039;28;20467;-66
2021/11/20 05:35:28;;;;;;;19.30;9.32;;;5.80;85.40;;;;;;5046983;28;20036;-67
2021/11/20 05:37:54;;;;;;;18.58;9.48;;;5.80;85.50;;;;;;5043352;28;20515;-67
2021/11/20 05:40:20;;;;;;;17.77;8.90;;;5.80;85.60;;;;;;5045273;28;20045;-67
2021/11/20 05:42:52;;;;;;;22.70;10.10;;;5.80;85.60;;;;;;5045902;28;20060;-66
2021/11/20 05:45:25;;;;;;;18.10;9.57;;;5.80;85.60;;;;;;5048518;28;20114;-66
2021/11/20 05:47:51;;;;;;;18.13;9.65;;;5.80;85.60;;;;;;5043199;28;20127;-66
2021/11/20 05:50:19;;;;;;;18.35;9.68;;;5.80;85.60;;;;;;5044050;28;20043;-66
2021/11/20 05:52:47;;;;;;;18.15;9.70;;;5.80;85.60;;;;;;5046815;28;20187;-67
2021/11/20 05:55:15;;;;;;;18.65;9.85;;;5.80;85.70;;;;;;5048021;28;20507;-66
2021/11/20 05:57:41;;;;;;;19.58;10.05;;;5.80;85.80;;;;;;5046487;28;20037;-67
2021/11/20 06:00:11;;;;;;;21.05;10.50;;;5.90;85.80;;;;;;5046524;28;20086;-66
2021/11/20 06:02:36;;;;;;;17.73;9.27;;;5.80;85.80;;;;;;5044448;28;20029;-67
2021/11/20 06:05:03;;;;;;;18.98;9.65;;;5.90;85.70;;;;;;5047817;28;20048;-67
2021/11/20 06:07:29;;;;;;;19.75;10.48;;;5.90;85.70;;;;;;5046942;28;20086;-67
2021/11/20 06:09:54;;;;;;;15.82;9.70;;;5.90;85.70;;;;;;5047912;28;20539;-67
2021/11/20 06:12:20;;;;;;;16.58;8.85;;;5.90;85.50;;;;;;5047163;28;20078;-66
2021/11/20 06:14:46;;;;;;;18.40;9.55;;;5.90;85.50;;;;;;5047695;28;20033;-67
2021/11/20 06:17:11;;;;;;;20.08;9.75;;;6.00;85.50;;;;;;5048509;28;20059;-66
2021/11/20 06:19:37;;;;;;;17.02;9.00;;;6.00;85.40;;;;;;5048898;28;20029;-66
2021/11/20 06:22:03;;;;;;;16.35;8.93;;;6.00;85.40;;;;;;5049160;28;20045;-66
2021/11/20 06:24:28;;;;;;;20.65;9.60;;;6.00;85.30;;;;;;5047384;28;20033;-66
2021/11/20 06:26:54;;;;;;;17.60;9.13;;;6.00;85.30;;;;;;5047920;28;20448;-66
2021/11/20 06:29:20;;;;;;;18.13;9.77;;;6.00;85.30;;;;;;5047595;28;20425;-67
2021/11/20 06:31:47;;;;;;;17.67;9.50;;;6.00;85.20;;;;;;5049299;28;20033;-66
2021/11/20 06:34:14;;;;;;;18.50;9.68;;;6.00;85.20;;;;;;5047904;28;20037;-66
2021/11/20 06:36:40;;;;;;;19.52;9.40;;;5.90;85.10;;;;;;5047446;28;20520;-67
2021/11/20 06:39:06;;;;;;;17.15;9.52;;;5.90;86.00;;;;;;5047704;28;20092;-67
2021/11/20 06:41:31;;;;;;;18.00;9.73;;;5.90;85.30;;;;;;5047803;28;20029;-67
2021/11/20 06:43:57;;;;;;;19.80;10.30;;;5.90;85.30;;;;;;5047890;28;20507;-66
2021/11/20 06:46:23;;;;;;;17.88;9.57;;;5.80;85.30;;;;;;5048347;28;20395;-66
2021/11/20 06:48:48;;;;;;;14.90;8.32;;;5.80;85.40;;;;;;5047551;28;20639;-66
2021/11/20 06:51:16;;;;;;;16.95;9.02;;;5.80;85.50;;;;;;5046289;28;20033;-66
2021/11/20 06:53:44;;;;;;;14.90;8.43;;;5.80;85.60;;;;;;5048043;28;20068;-67
2021/11/20 06:56:14;;;;;;;15.95;9.35;;;5.80;85.60;;;;;;5046352;28;20078;-66
2021/11/20 06:58:53;;;;;;;14.45;8.20;;;5.80;85.60;;;;;;5044963;28;20580;-65
2021/11/20 07:01:22;;;;;;;14.98;8.07;;;5.80;85.60;;;;;;5045929;28;20472;-65
2021/11/20 07:03:48;;;;;;;14.23;7.97;;;5.80;85.60;;;;;;5044975;28;20432;-66
2021/11/20 07:06:26;;;;;;;17.45;9.65;;;5.80;85.70;;;;;;5047654;28;20037;-66
2021/11/20 07:08:54;;;;;;;16.63;8.65;;;5.80;85.80;;;;;;5048220;28;20488;-66
2021/11/20 07:11:20;;;;;;;16.83;8.90;;;5.80;85.70;;;;;;5039703;28;20404;-66
2021/11/20 07:13:49;;;;;;;16.10;8.52;;;5.80;85.80;;;;;;5044817;28;20040;-65
2021/11/20 07:16:15;;;;;;;15.90;8.68;;;5.80;85.70;;;;;;5046706;28;20041;-66
2021/11/20 07:18:41;;;;;;;18.30;10.68;;;5.80;85.70;;;;;;5042766;28;20048;-65
2021/11/20 07:21:07;;;;;;;14.88;8.57;;;5.80;85.70;;;;;;5043623;28;20025;-66
2021/11/20 07:23:33;;;;;;;16.23;9.90;;;5.80;85.70;;;;;;5041856;28;20374;-66
2021/11/20 07:25:59;;;;;;;15.90;9.30;;;5.70;85.80;;;;;;5043493;28;20515;-66
2021/11/20 07:28:26;;;;;;;14.57;8.93;;;5.80;86.00;;;;;;5044643;28;20033;-67
2021/11/20 07:30:52;;;;;;;16.58;9.27;;;5.80;86.00;;;;;;5042001;28;20048;-67
2021/11/20 07:33:18;;;;;;;17.25;9.02;;;5.80;86.10;;;;;;5044711;28;20025;-66
2021/11/20 07:35:51;;;;;;;13.15;7.53;;;5.80;86.20;;;;;;5041119;28;20132;-66
2021/11/20 07:38:21;;;;;;;15.77;8.77;;;5.80;86.30;;;;;;5042461;28;20041;-66
2021/11/20 07:40:47;;;;;;;13.25;7.35;;;5.90;86.30;;;;;;5043417;28;20508;-66
2021/11/20 07:43:14;;;;;;;13.27;7.32;;;5.90;86.30;;;;;;5042455;28;20037;-66
2021/11/20 07:45:41;;;;;;;11.80;7.13;;;5.90;86.10;;;;;;5046157;28;20041;-65
2021/11/20 07:48:23;;;;;;;13.80;7.35;;;5.90;86.10;;;;;;5044757;28;20086;-66
2021/11/20 07:50:50;;;;;;;13.90;7.63;;;6.00;86.20;;;;;;5047010;28;20124;-66
2021/11/20 07:53:17;;;;;;;13.50;7.47;;;6.00;86.10;;;;;;5041485;28;20036;-66
2021/11/20 07:55:43;;;;;;;13.00;7.53;;;6.10;86.10;;;;;;5044027;28;20427;-66
2021/11/20 07:58:09;;;;;;;13.10;7.07;;;6.10;86.20;;;;;;5045422;28;20503;-66
2021/11/20 08:00:36;;;;;;;12.43;7.10;;;6.10;86.30;;;;;;5041634;28;20044;-66
2021/11/20 08:03:03;;;;;;;11.57;6.47;;;6.20;86.30;;;;;;5042676;28;20530;-66
2021/11/20 08:05:28;;;;;;;12.48;6.85;;;6.20;86.20;;;;;;5045412;28;20039;-67
2021/11/20 08:07:55;;;;;;;12.30;7.47;;;6.20;86.10;;;;;;5043142;28;20155;-66
2021/11/20 08:10:24;;;;;;;10.35;6.85;;;6.30;86.10;;;;;;5044871;28;20527;-67
2021/11/20 08:12:50;;;;;;;15.02;7.75;;;6.30;86.90;;;;;;5040004;28;20447;-66
2021/11/20 08:15:16;;;;;;;12.70;7.82;;;6.40;86.10;;;;;;5041608;28;20060;-67
2021/11/20 08:17:42;;;;;;;15.25;7.75;;;6.40;86.00;;;;;;5043424;28;20044;-66
2021/11/20 08:20:10;;;;;;;14.93;9.02;;;6.40;86.00;;;;;;5044859;28;20120;-66
2021/11/20 08:22:37;;;;;;;17.73;9.52;;;6.50;86.00;;;;;;5044128;28;20842;-66
2021/11/20 08:25:04;;;;;;;15.18;8.80;;;6.50;85.90;;;;;;5042232;28;20045;-66
2021/11/20 08:27:30;;;;;;;14.10;8.40;;;6.50;85.80;;;;;;5046187;28;20055;-66
2021/11/20 08:29:56;;;;;;;14.63;8.05;;;6.50;85.80;;;;;;5041986;28;20087;-66
2021/11/20 08:32:22;;;;;;;13.55;8.15;;;6.60;85.90;;;;;;5045051;28;20048;-66
2021/11/20 08:34:48;;;;;;;13.57;7.68;;;6.60;86.00;;;;;;5043150;28;20044;-66
2021/11/20 08:37:15;;;;;;;15.25;8.48;;;6.60;85.90;;;;;;5045797;28;20060;-66
2021/11/20 08:39:41;;;;;;;14.90;8.20;;;6.60;85.80;;;;;;5043378;28;20033;-66
2021/11/20 08:42:07;;;;;;;14.27;8.43;;;6.70;85.70;;;;;;5044416;28;20047;-65
2021/11/20 08:44:33;;;;;;;15.90;8.07;;;6.70;85.80;;;;;;5038570;28;20095;-66
2021/11/20 08:46:59;;;;;;;16.10;8.95;;;6.70;85.90;;;;;;5045953;28;20444;-65
2021/11/20 08:49:24;;;;;;;15.90;8.80;;;6.80;85.80;;;;;;5042896;28;20403;-66
2021/11/20 08:51:52;;;;;;;15.75;8.77;;;6.80;85.60;;;;;;5048380;28;20032;-67
2021/11/20 08:54:19;;;;;;;16.23;8.88;;;6.80;85.60;;;;;;5046853;28;20032;-66
2021/11/20 08:56:47;;;;;;;14.98;8.88;;;6.90;85.70;;;;;;5046812;28;20087;-66
2021/11/20 08:59:16;;;;;;;15.65;8.73;;;6.80;85.70;;;;;;5038272;28;20545;-66
2021/11/20 09:02:16;;;;;;;14.02;8.20;;;6.90;85.90;;;;;;5040601;28;20029;-66
2021/11/20 09:04:50;;;;;;;12.32;7.88;;;6.90;86.10;;;;;;5044912;28;20408;-66
2021/11/20 09:07:25;;;;;;;15.85;10.60;;;7.00;85.90;;;;;;5042257;28;20033;-66
2021/11/20 09:10:26;;;;;;;10.88;7.25;;;7.10;85.90;;;;;;5044157;28;20036;-66
2021/11/20 09:12:57;;;;;;;11.30;7.88;;;7.10;86.10;;;;;;5013334;28;20100;-66
2021/11/20 09:15:32;;;;;;;11.38;7.35;;;7.10;85.70;;;;;;5039570;28;20079;-67
2021/11/20 09:17:57;;;;;;;;;;;7.10;86.70;;;;;;5039873;28;20496;-66
2021/11/20 09:20:26;;;;;;;12.45;8.25;;;7.20;86.40;;;;;;5040413;28;19923;-66
2021/11/20 09:22:52;;;;;;;10.82;6.63;;;7.20;85.80;;;;;;5037255;28;20037;-66
2021/11/20 09:25:18;;;;;;;11.40;6.80;;;7.30;85.80;;;;;;5044147;28;20569;-66
2021/11/20 09:27:45;;;;;;;10.35;6.18;;;7.30;85.70;;;;;;5046409;28;20083;-66
2021/11/20 09:30:15;;;;;;;11.18;6.72;;;7.30;85.70;;;;;;5043167;28;20041;-66
2021/11/20 09:32:41;;;;;;;9.88;6.68;;;7.30;85.50;;;;;;5042738;28;20035;-66
2021/11/20 09:35:07;;;;;;;11.18;6.38;;;7.40;85.50;;;;;;5041544;28;20044;-66
2021/11/20 09:37:32;;;;;;;11.18;6.03;;;7.40;85.60;;;;;;5042076;28;20116;-66
2021/11/20 09:39:58;;;;;;;10.90;6.78;;;7.50;85.60;;;;;;5040963;28;20116;-66
2021/11/20 09:42:50;;;;;;;11.18;6.85;;;7.40;85.30;;;;;;5043883;28;20040;-66
2021/11/20 09:45:17;;;;;;;10.38;6.72;;;7.40;85.70;;;;;;5041781;28;20208;-67
2021/11/20 09:47:56;;;;;;;10.77;6.72;;;7.50;85.50;;;;;;5039904;28;20048;-66
2021/11/20 09:50:29;;;;;;;12.23;6.97;;;7.40;85.60;;;;;;5038147;28;20124;-66
2021/11/20 09:52:55;;;;;;;10.32;6.43;;;7.50;85.70;;;;;;5041037;28;20040;-66
2021/11/20 09:55:31;;;;;;;9.30;6.07;;;7.50;85.60;;;;;;5045074;28;20075;-66
2021/11/20 09:58:18;;;;;;;10.75;6.43;;;7.50;85.50;;;;;;5041294;28;20088;-66
2021/11/20 10:00:47;;;;;;;10.32;6.65;;;7.50;85.30;;;;;;5043403;28;20067;-66
2021/11/20 10:03:30;;;;;;;9.63;5.97;;;7.50;85.20;;;;;;5043926;28;20052;-66
2021/11/20 10:06:00;;;;;;;9.77;6.32;;;7.50;85.30;;;;;;5047405;28;20029;-67
2021/11/20 10:08:28;;;;;;;10.55;6.65;;;7.50;85.30;;;;;;5044375;28;20040;-67
2021/11/20 10:11:20;;;;;;;9.35;5.50;;;7.50;85.20;;;;;;5038680;28;20108;-66
2021/11/20 10:13:48;;;;;;;9.88;6.13;;;7.60;85.20;;;;;;5037908;28;21618;-67
2021/11/20 10:16:23;;;;;;;9.32;5.47;;;7.60;85.00;;;;;;5044577;28;20477;-66
2021/11/20 10:18:54;;;;;;;9.77;5.95;;;7.60;85.00;;;;;;5045704;28;20567;-66
2021/11/20 10:21:38;;;;;;;7.97;5.57;;;7.60;85.10;;;;;;5041006;28;20520;-67
2021/11/20 10:24:31;;;;;;;8.77;5.82;;;7.70;85.20;;;;;;5042217;28;20038;-66
2021/11/20 10:27:12;;;;;;;8.50;5.32;;;7.70;85.20;;;;;;5046380;28;20036;-66
2021/11/20 10:30:15;;;;;;;7.70;5.60;;;7.70;85.20;;;;;;5041242;28;20025;-66
2021/11/20 10:32:49;;;;;;;7.45;4.93;;;7.80;86.00;;;;;;5044566;28;20033;-66
2021/11/20 10:35:21;;;;;;;8.88;5.40;;;7.80;85.00;;;;;;5041753;28;20083;-67
2021/11/20 10:37:56;;;;;;;8.25;5.63;;;7.80;85.00;;;;;;5040361;28;20045;-66
2021/11/20 10:40:24;;;;;;;;;;;7.80;84.90;;;;;;5044576;28;20060;-66
2021/11/20 10:43:06;;;;;;;8.55;5.50;;;7.80;84.90;;;;;;5043997;28;19913;-66
2021/11/20 10:45:38;;;;;;;8.57;5.90;;;7.80;84.50;;;;;;5042827;28;20033;-66
2021/11/20 10:48:29;;;;;;;8.73;5.68;;;7.90;84.40;;;;;;5046624;28;20039;-66
2021/11/20 10:51:12;;;;;;;8.65;5.72;;;7.80;84.60;;;;;;5038202;28;20037;-66
2021/11/20 10:54:20;;;;;;;8.68;5.70;;;7.80;84.60;;;;;;5043345;28;20037;-67
2021/11/20 10:56:52;;;;;;;9.15;5.35;;;7.80;84.40;;;;;;5045981;28;20048;-67
2021/11/20 10:59:39;;;;;;;8.20;5.65;;;7.90;84.40;;;;;;5041174;28;20057;-66
2021/11/20 11:02:15;;;;;;;9.25;5.93;;;7.80;84.50;;;;;;5042546;28;20029;-66
2021/11/20 11:04:59;;;;;;;9.25;5.60;;;7.80;84.50;;;;;;5039930;28;20037;-66
2021/11/20 11:08:01;;;;;;;9.55;5.50;;;7.80;84.60;;;;;;5034150;28;20108;-66
2021/11/20 11:10:44;;;;;;;8.00;5.47;;;7.90;84.50;;;;;;5034738;28;20125;-66
2021/11/20 11:13:24;;;;;;;8.45;5.90;;;7.80;84.10;;;;;;5042738;28;20408;-66
2021/11/20 11:16:20;;;;;;;9.68;5.50;;;7.80;84.10;;;;;;5042462;28;20044;-67
2021/11/20 11:18:55;;;;;;;12.15;6.93;;;7.80;84.20;;;;;;5039771;28;20118;-67
2021/11/20 11:21:56;;;;;;;9.15;5.75;;;7.80;84.20;;;;;;5045366;28;20041;-66
2021/11/20 11:24:55;;;;;;;8.20;5.32;;;7.70;84.30;;;;;;5046732;28;20025;-66
2021/11/20 11:27:38;;;;;;;8.85;5.55;;;7.70;84.50;;;;;;5048082;28;20516;-66
2021/11/20 11:30:29;;;;;;;9.13;6.18;;;7.70;84.60;;;;;;5043061;28;20386;-67
2021/11/20 11:32:56;;;;;;;9.45;6.15;;;7.80;84.80;;;;;;5041181;28;20450;-66
2021/11/20 11:35:27;;;;;;;8.43;5.75;;;7.80;84.70;;;;;;5043375;28;20037;-66
2021/11/20 11:38:30;;;;;;;11.52;5.53;;;7.80;84.60;;;;;;5046886;28;20048;-67
2021/11/20 11:41:08;;;;;;;8.10;5.38;;;7.80;84.60;;;;;;5043384;28;20523;-66
2021/11/20 11:43:43;;;;;;;8.85;5.50;;;7.80;84.50;;;;;;5040993;28;20041;-67
2021/11/20 11:46:18;;;;;;;8.30;5.57;;;7.80;84.50;;;;;;5046519;28;20033;-66
2021/11/20 11:49:26;;;;;;;7.07;5.35;;;7.80;84.50;;;;;;5042577;28;20412;-67
2021/11/20 11:52:16;;;;;;;7.20;5.30;;;7.80;84.60;;;;;;5041285;28;20037;-67
2021/11/20 11:55:04;;;;;;;8.40;6.05;;;7.80;84.50;;;;;;5041548;28;20522;-66
2021/11/20 11:58:07;;;;;;;7.93;5.47;;;7.80;84.20;;;;;;5032298;28;22139;-66
2021/11/20 12:00:56;;;;;;;7.60;5.65;;;7.80;84.10;;;;;;5037066;28;20870;-67
2021/11/20 12:03:28;;;;;;;7.28;5.40;;;7.90;84.30;;;;;;5038571;28;20127;-67
2021/11/20 12:06:03;;;;;;;9.75;6.25;;;7.90;84.30;;;;;;5043718;28;20033;-67
2021/11/20 12:08:44;;;;;;;7.55;5.57;;;7.90;84.10;;;;;;5039107;28;20033;-66
2021/11/20 12:11:15;;;;;;;8.70;6.20;;;7.90;84.10;;;;;;5036630;28;20033;-66
2021/11/20 12:13:45;;;;;;;11.18;6.65;;;7.90;84.10;;;;;;5041544;28;20032;-67
2021/11/20 12:16:14;;;;;;;9.10;6.05;;;7.90;84.30;;;;;;5040931;28;20122;-67
2021/11/20 12:18:46;;;;;;;8.90;6.32;;;7.90;84.10;;;;;;5043031;28;20734;-67
2021/11/20 12:21:26;;;;;;;8.85;6.35;;;7.90;84.10;;;;;;5043942;28;20533;-67
2021/11/20 12:24:07;;;;;;;10.13;6.57;;;7.90;84.20;;;;;;5040953;28;20029;-67
2021/11/20 12:26:40;;;;;;;8.90;6.15;;;7.90;84.10;;;;;;5038851;28;20496;-68
2021/11/20 12:29:40;;;;;;;9.45;6.68;;;7.90;84.20;;;;;;5042453;28;21170;-67
2021/11/20 12:32:57;;;;;;;8.77;6.22;;;7.90;84.00;;;;;;5038538;28;20556;-66
2021/11/20 12:35:42;;;;;;;8.98;5.82;;;8.00;84.00;;;;;;5014142;28;20049;-66
2021/11/20 12:38:43;;;;;;;8.52;6.18;;;8.00;83.80;;;;;;5011104;28;20100;-67
2021/11/20 12:41:24;;;;;;;7.80;5.40;;;8.00;83.60;;;;;;5033692;28;20412;-67
2021/11/20 12:44:11;;;;;;;17.30;5.85;;;8.00;83.70;;;;;;5041261;28;20516;-67
2021/11/20 12:46:51;;;;;;;9.32;5.88;;;7.90;84.00;;;;;;5041365;28;20037;-63
2021/11/20 12:49:25;;;;;;;9.40;6.40;;;8.00;84.00;;;;;;5039648;28;20037;-67
2021/11/20 12:51:51;;;;;;;10.10;6.33;;;8.00;84.80;;;;;;5040395;28;20040;-67
2021/11/20 12:54:38;;;;;;;10.23;6.75;;;8.00;84.00;;;;;;5039793;28;20056;-67
2021/11/20 12:57:41;;;;;;;9.80;6.95;;;8.00;84.00;;;;;;5061595;28;20037;-67
2021/11/20 13:00:27;;;;;;;10.15;6.53;;;8.10;83.80;;;;;;5043213;28;20117;-66
2021/11/20 13:02:55;;;;;;;9.18;6.47;;;8.20;83.60;;;;;;5045484;28;20045;-67
2021/11/20 13:05:24;;;;;;;9.15;6.50;;;8.20;83.60;;;;;;5042280;28;20043;-67
2021/11/20 13:08:04;;;;;;;9.05;6.45;;;8.20;83.30;;;;;;5046956;28;20041;-67
2021/11/20 13:10:35;;;;;;;10.07;7.05;;;8.20;83.10;;;;;;5041320;28;20029;-67